»·PEaware :: WAT169 KSFO-KLAS

WAT169 :: KSFO-KLAS

FLIGHT INFORMATION

Flight Status: Arrived
Operator:
Walker Air Transport
More flights by this operator :: More flights under this callsign
Pilot: Marty P. (27464)
Aircraft: BOEING 737-800
(B738)
More flights by this aircraft type
Origin: KSFO San Francisco Intl
United States
Destination: KLAS McCarran Intl
United States
More flights between these airports :: More routes between these airports
Route: SSTIK4 NTELL Q162 KENNO TACUS SUNST4
File this flight plan on PilotEdge
Remarks:
Altitude:
(Current/Filed)
35,000ft
Speed:
(Current/Filed)
470kts
Departed: 10-Apr-20 04:57 PM
Arrived: 10-Apr-20 06:18 PM
Distance/Time
Traveled:
359nm/1:21
Distance/Time
To Go:
Arrived

Flight Plot

Page will automatically refresh every two minutes.

Flight plan parsing failed; only flown route is shown


Map Options




Map Legend


Flown Route
Filed Route
Departure Airport
Arrival Airport
Navaid (VOR, NDB)
Fix

Horizontal Profiles

Position Reports

Time Latitude Longitude Heading Altitude Ground
Speed
10-Apr-20 16:16 37.617916 -122.382815 176 24ft 0kts
10-Apr-20 16:17 37.617916 -122.382815 176 24ft 0kts
10-Apr-20 16:18 37.617916 -122.382815 176 24ft 0kts
10-Apr-20 16:19 37.617917 -122.382815 176 24ft 0kts
10-Apr-20 16:20 37.617917 -122.382815 176 24ft 0kts
10-Apr-20 16:21 37.617917 -122.382815 176 24ft 0kts
10-Apr-20 16:22 37.617917 -122.382815 176 24ft 0kts
10-Apr-20 16:23 37.617917 -122.382815 176 24ft 0kts
10-Apr-20 16:24 37.617917 -122.382815 176 24ft 0kts
10-Apr-20 16:25 37.617917 -122.382815 176 24ft 0kts
10-Apr-20 16:26 37.617917 -122.382815 176 24ft 0kts
10-Apr-20 16:27 37.617917 -122.382815 176 24ft 0kts
10-Apr-20 16:28 37.617917 -122.382815 176 24ft 0kts
10-Apr-20 16:29 37.617917 -122.382815 176 24ft 0kts
10-Apr-20 16:30 37.617917 -122.382815 176 24ft 0kts
10-Apr-20 16:31 37.617917 -122.382815 176 24ft 0kts
10-Apr-20 16:32 37.617917 -122.382815 176 24ft 0kts
10-Apr-20 16:33 37.617917 -122.382815 176 24ft 0kts
10-Apr-20 16:34 37.617917 -122.382815 176 24ft 0kts
10-Apr-20 16:35 37.617917 -122.382815 176 24ft 0kts
10-Apr-20 16:36 37.617917 -122.382815 176 24ft 0kts
10-Apr-20 16:37 37.617917 -122.382815 176 24ft 0kts
10-Apr-20 16:38 37.617917 -122.382815 176 24ft 0kts
10-Apr-20 16:39 37.617917 -122.382815 176 24ft 0kts
10-Apr-20 16:40 37.617917 -122.382815 176 24ft 0kts
10-Apr-20 16:41 37.617917 -122.382815 176 24ft 0kts
10-Apr-20 16:42 37.617917 -122.382815 176 24ft 0kts
10-Apr-20 16:43 37.617917 -122.382815 176 24ft 0kts
10-Apr-20 16:44 37.618010 -122.382821 176 24ft 2kts
10-Apr-20 16:45 37.618327 -122.383239 68 24ft 2kts
10-Apr-20 16:46 37.618152 -122.383446 25 24ft 0kts
10-Apr-20 16:47 37.618152 -122.383446 25 24ft 0kts
10-Apr-20 16:48 37.618268 -122.383374 27 24ft 0kts
10-Apr-20 16:49 37.619601 -122.382151 86 24ft 7kts
10-Apr-20 16:50 37.616728 -122.379603 198 24ft 12kts
10-Apr-20 16:51 37.614770 -122.380877 206 23ft 4kts
10-Apr-20 16:52 37.612137 -122.382589 207 24ft 16kts
10-Apr-20 16:53 37.609425 -122.383856 155 23ft 7kts
10-Apr-20 16:54 37.608988 -122.383551 139 24ft 3kts
10-Apr-20 16:55 37.609743 -122.381748 23 24ft 18kts
10-Apr-20 16:56 37.638709 -122.360895 27 882ft 197kts
10-Apr-20 16:57 37.694106 -122.366003 328 3512ft 236kts
10-Apr-20 16:58 37.694066 -122.442284 212 6734ft 273kts
10-Apr-20 16:59 37.615159 -122.457164 184 9133ft 298kts
10-Apr-20 17:00 37.529387 -122.465288 172 10113ft 333kts
10-Apr-20 17:01 37.447660 -122.401172 123 12076ft 358kts
10-Apr-20 17:02 37.402472 -122.288828 102 14701ft 362kts
10-Apr-20 17:03 37.377290 -122.166182 98 16621ft 377kts
10-Apr-20 17:04 37.352048 -122.039061 98 18369ft 386kts
10-Apr-20 17:05 37.325783 -121.907684 98 20865ft 392kts
10-Apr-20 17:06 37.298855 -121.773511 97 22251ft 403kts
10-Apr-20 17:07 37.270719 -121.634334 97 24307ft 415kts
10-Apr-20 17:08 37.241718 -121.491605 97 26426ft 430kts
10-Apr-20 17:09 37.212388 -121.348159 97 28312ft 443kts
10-Apr-20 17:10 37.181495 -121.198334 97 30261ft 449kts
10-Apr-20 17:11 37.150772 -121.050723 97 32633ft 439kts
10-Apr-20 17:12 37.120128 -120.904352 98 34528ft 426kts
10-Apr-20 17:13 37.089521 -120.758589 98 35069ft 440kts
10-Apr-20 17:14 37.058124 -120.609970 98 35069ft 441kts
10-Apr-20 17:15 37.026767 -120.462949 98 35072ft 440kts
10-Apr-20 17:16 36.996589 -120.322632 98 35073ft 441kts
10-Apr-20 17:17 36.964330 -120.173621 99 35071ft 441kts
10-Apr-20 17:18 36.932482 -120.027096 98 35077ft 440kts
10-Apr-20 17:19 36.909861 -119.881425 78 35073ft 421kts
10-Apr-20 17:20 36.945270 -119.749345 63 35074ft 413kts
10-Apr-20 17:21 36.987589 -119.620752 64 35069ft 412kts
10-Apr-20 17:22 37.030060 -119.490773 64 35073ft 413kts
10-Apr-20 17:23 37.071986 -119.361673 64 35072ft 412kts
10-Apr-20 17:24 37.114177 -119.231097 65 35072ft 412kts
10-Apr-20 17:25 37.156833 -119.098582 65 35071ft 411kts
10-Apr-20 17:26 37.199507 -118.965608 65 35073ft 411kts
10-Apr-20 17:27 37.241105 -118.835215 65 35073ft 411kts
10-Apr-20 17:28 37.273518 -118.698802 75 35073ft 415kts
10-Apr-20 17:29 37.290569 -118.557294 78 35073ft 415kts
10-Apr-20 17:30 37.304620 -118.413982 78 35073ft 414kts
10-Apr-20 17:31 37.317418 -118.275508 79 35074ft 415kts
10-Apr-20 17:32 37.330241 -118.132735 79 35074ft 412kts
10-Apr-20 17:34 37.342951 -117.989642 80 35073ft 412kts
10-Apr-20 17:35 37.343648 -117.844511 89 35072ft 420kts
10-Apr-20 17:36 37.332859 -117.697929 91 35073ft 422kts
10-Apr-20 17:37 37.320286 -117.551203 91 35073ft 424kts
10-Apr-20 17:38 37.307147 -117.404196 92 35072ft 426kts
10-Apr-20 17:39 37.268052 -117.264658 114 35073ft 441kts
10-Apr-20 17:40 37.204958 -117.132540 117 35073ft 443kts
10-Apr-20 17:41 37.138803 -117.002101 118 35073ft 444kts
10-Apr-20 17:42 37.058205 -116.887140 137 34052ft 443kts
10-Apr-20 17:43 36.957037 -116.796071 140 30360ft 456kts
10-Apr-20 17:44 36.854071 -116.708515 142 26363ft 461kts
10-Apr-20 17:45 36.757552 -116.609009 134 23960ft 436kts
10-Apr-20 17:46 36.674277 -116.513237 133 23962ft 403kts
10-Apr-20 17:47 36.592535 -116.418037 132 23958ft 401kts
10-Apr-20 17:48 36.511906 -116.324131 133 23942ft 400kts
10-Apr-20 17:49 36.434546 -116.228048 129 21025ft 396kts
10-Apr-20 17:49 36.375201 -116.144893 129 19115ft 379kts
10-Apr-20 17:51 36.297522 -116.035703 129 17937ft 369kts
10-Apr-20 17:52 36.231574 -115.943441 129 16307ft 330kts
10-Apr-20 17:53 36.185612 -115.854488 110 15995ft 307kts
10-Apr-20 17:53 36.159584 -115.772684 110 15992ft 306kts
10-Apr-20 17:55 36.123510 -115.660461 110 15006ft 296kts
10-Apr-20 17:56 36.093039 -115.566332 110 13508ft 294kts
10-Apr-20 17:57 36.062807 -115.472994 110 12015ft 291kts
10-Apr-20 17:58 36.033985 -115.382761 105 11043ft 261kts
10-Apr-20 17:59 36.025048 -115.293697 95 10280ft 263kts
10-Apr-20 17:59 36.019663 -115.218338 95 9222ft 264kts
10-Apr-20 18:00 36.013585 -115.130387 94 8254ft 255kts
10-Apr-20 18:01 36.008299 -115.048966 94 7999ft 239kts
10-Apr-20 18:02 36.003537 -114.967774 94 7994ft 236kts
10-Apr-20 18:03 35.998685 -114.886787 94 7990ft 235kts
10-Apr-20 18:04 35.993690 -114.806173 95 7991ft 236kts
10-Apr-20 18:05 35.988331 -114.725379 95 7989ft 233kts
10-Apr-20 18:06 35.984100 -114.648015 83 7968ft 201kts
10-Apr-20 18:07 36.018181 -114.603182 10 7989ft 193kts
10-Apr-20 18:08 36.063762 -114.627314 292 7992ft 193kts
10-Apr-20 18:09 36.070365 -114.692288 275 7985ft 190kts
10-Apr-20 18:10 36.073550 -114.757608 269 8007ft 184kts
10-Apr-20 18:11 36.073718 -114.818015 270 7092ft 168kts
10-Apr-20 18:12 36.073805 -114.876905 270 6093ft 163kts
10-Apr-20 18:13 36.073842 -114.934205 270 5211ft 164kts
10-Apr-20 18:14 36.073837 -114.990584 271 4340ft 161kts
10-Apr-20 18:15 36.073803 -115.046262 271 3481ft 161kts
10-Apr-20 18:16 36.073725 -115.101711 270 2615ft 161kts
10-Apr-20 18:17 36.073651 -115.145904 273 2192ft 21kts
10-Apr-20 18:18 36.074446 -115.149934 299 2192ft 0kts
10-Apr-20 18:19 36.074714 -115.150476 303 2192ft 10kts
10-Apr-20 18:20 36.077619 -115.152071 32 2192ft 9kts
10-Apr-20 18:21 36.078029 -115.148392 41 2192ft 9kts
10-Apr-20 18:22 36.079787 -115.147359 64 2192ft 2kts
10-Apr-20 18:23 36.079909 -115.147062 63 2192ft 0kts
10-Apr-20 18:24 36.079909 -115.147062 63 2192ft 0kts
10-Apr-20 18:25 36.079909 -115.147062 63 2192ft 0kts

Navigation Log

Ident Type
Flight plan parsing failed, navigation log unavailable